Time;durP1;ratioP1;P1;durP2;ratioP2;P2;SDS_P1;SDS_P2;PMS_P1;PMS_P2;Temp;Humidity;BMP_temperature;BMP_pressure;BME280_temperature;BME280_humidity;BME280_pressure;Samples;Min_cycle;Max_cycle;Signal;HPM_P1;HPM_P2
2022/07/17 00:02:17;;;;;;;;;;;;;;;25.51;44.01;98690.44;5119012;28;19920;-61
2022/07/17 00:04:43;;;;;;;;;;;;;;;25.53;44.07;98682.66;5121180;28;19987;-60
2022/07/17 00:07:11;;;;;;;;;;;;;;;25.54;43.96;98694.41;5122262;28;19924;-61
2022/07/17 00:09:37;;;;;;;;;;;;;;;25.55;44.03;98683.13;5121094;28;19920;-60
2022/07/17 00:12:04;;;;;;;;;;;;;;;25.47;44.02;98691.44;5126981;27;20390;-61
2022/07/17 00:14:31;;;;;;;;;;;;;;;25.46;44.18;98687.91;5121758;27;19931;-59
2022/07/17 00:16:57;;;;;;;;;;;;;;;25.39;44.13;98690.41;5122329;28;19931;-60
2022/07/17 00:19:24;;;;;;;;;;;;;;;25.40;44.09;98688.47;5122111;28;19935;-60
2022/07/17 00:21:50;;;;;;;;;;;;;;;25.25;43.93;98698.91;5118698;28;20642;-60
2022/07/17 00:24:20;;;;;;;;;;;;;;;25.26;44.24;98696.97;5117891;28;20027;-61
2022/07/17 00:26:47;;;;;;;;;;;;;;;24.70;44.67;98698.53;5121194;28;19930;-61
2022/07/17 00:29:13;;;;;;;;;;;;;;;24.14;45.91;98694.50;5121956;28;19930;-60
2022/07/17 00:31:40;;;;;;;;;;;;;;;23.70;46.75;98692.38;5120415;28;19924;-61
2022/07/17 00:34:06;;;;;;;;;;;;;;;24.02;46.57;98688.94;5118597;28;19924;-60
2022/07/17 00:36:32;;;;;;;;;;;;;;;24.22;46.08;98688.19;5119260;28;19928;-60
2022/07/17 00:38:59;;;;;;;;;;;;;;;23.92;46.42;98700.28;5122287;28;19931;-60
2022/07/17 00:41:26;;;;;;;;;;;;;;;24.05;46.48;98693.75;5122143;28;19924;-61
2022/07/17 00:43:53;;;;;;;;;;;;;;;24.56;45.59;98690.63;5133487;28;20083;-61
2022/07/17 00:46:19;;;;;;;;;;;;;;;24.51;45.80;98693.56;5118767;28;19977;-61
2022/07/17 00:48:46;;;;;;;;;;;;;;;24.33;46.12;98699.50;5121015;28;19924;-61
2022/07/17 00:51:12;;;;;;;;;;;;;;;24.34;46.17;98693.72;5122237;28;19938;-61
2022/07/17 00:53:40;;;;;;;;;;;;;;;24.60;45.80;98694.28;5120525;28;19928;-61
2022/07/17 00:56:06;;;;;;;;;;;;;;;24.69;45.70;98697.75;5118599;28;19935;-61
2022/07/17 00:58:36;;;;;;;;;;;;;;;24.53;45.80;98710.44;5118932;28;19924;-61
2022/07/17 01:01:06;;;;;;;;;;;;;;;24.37;46.05;98711.34;5121914;28;19950;-61
2022/07/17 01:03:32;;;;;;;;;;;;;;;24.53;46.01;98713.16;5120974;28;20002;-61
2022/07/17 01:05:59;;;;;;;;;;;;;;;24.49;46.14;98717.69;5118269;28;19924;-61
2022/07/17 01:08:25;;;;;;;;;;;;;;;23.68;47.25;98714.50;5118190;28;20264;-60
2022/07/17 01:10:52;;;;;;;;;;;;;;;23.92;47.12;98716.63;5121697;28;19924;-61
2022/07/17 01:13:18;;;;;;;;;;;;;;;23.88;46.91;98732.06;5136712;28;19928;-61
2022/07/17 01:15:46;;;;;;;;;;;;;;;22.90;48.60;98726.81;5119452;28;19924;-59
2022/07/17 01:18:13;;;;;;;;;;;;;;;23.10;48.23;98718.75;5118173;28;20347;-61
2022/07/17 01:20:44;;;;;;;;;;;;;;;23.28;48.54;98718.66;5119508;28;21214;-60
2022/07/17 01:23:12;;;;;;;;;;;;;;;22.97;49.04;98725.19;5121849;28;19995;-60
2022/07/17 01:25:38;;;;;;;;;;;;;;;23.37;48.17;98720.25;5120155;28;19995;-61
2022/07/17 01:28:05;;;;;;;;;;;;;;;23.49;47.89;98714.94;5118167;28;19924;-59
2022/07/17 01:30:32;;;;;;;;;;;;;;;22.98;48.87;98725.97;5118451;28;19958;-60
2022/07/17 01:32:58;;;;;;;;;;;;;;;23.69;48.13;98726.22;5121674;28;19967;-60
2022/07/17 01:35:25;;;;;;;;;;;;;;;24.06;47.50;98722.63;5124511;28;19930;-60
2022/07/17 01:37:51;;;;;;;;;;;;;;;24.11;47.04;98723.25;5122066;28;19924;-61
2022/07/17 01:40:19;;;;;;;;;;;;;;;24.35;46.63;98717.16;5121618;28;19987;-60
2022/07/17 01:42:46;;;;;;;;;;;;;;;24.36;46.52;98720.66;5139086;27;19924;-61
2022/07/17 01:45:13;;;;;;;;;;;;;;;24.22;46.42;98715.50;5125440;28;19962;-60
2022/07/17 01:47:40;;;;;;;;;;;;;;;24.16;46.53;98719.56;5123445;28;19923;-61
2022/07/17 01:50:07;;;;;;;;;;;;;;;24.30;46.28;98717.34;5121480;28;19924;-59
2022/07/17 01:52:35;;;;;;;;;;;;;;;24.31;46.17;98713.50;5122138;28;19924;-60
2022/07/17 01:55:02;;;;;;;;;;;;;;;24.33;46.31;98713.16;5125183;28;19924;-60
2022/07/17 01:57:29;;;;;;;;;;;;;;;24.37;46.12;98722.28;5124953;28;19928;-60
2022/07/17 01:59:56;;;;;;;;;;;;;;;24.35;46.03;98724.56;5121460;28;20614;-60
2022/07/17 02:02:22;;;;;;;;;;;;;;;24.37;46.04;98722.28;5121355;28;19951;-59
2022/07/17 02:04:48;;;;;;;;;;;;;;;24.36;46.10;98720.66;5124327;28;19987;-59
2022/07/17 02:07:15;;;;;;;;;;;;;;;24.33;46.08;98722.13;5124678;28;19987;-61
2022/07/17 02:09:41;;;;;;;;;;;;;;;24.39;45.90;98725.47;5122855;28;19924;-60
2022/07/17 02:12:08;;;;;;;;;;;;;;;24.31;46.06;98727.16;5130343;27;19935;-60
2022/07/17 02:14:36;;;;;;;;;;;;;;;24.33;45.97;98726.78;5127376;27;19939;-60
2022/07/17 02:17:02;;;;;;;;;;;;;;;24.29;45.99;98729.41;5124776;28;19923;-61
2022/07/17 02:19:28;;;;;;;;;;;;;;;24.30;45.95;98716.53;5124579;28;19919;-60
2022/07/17 02:21:55;;;;;;;;;;;;;;;24.24;45.95;98721.41;5121150;28;19924;-60
2022/07/17 02:24:21;;;;;;;;;;;;;;;24.27;45.90;98718.00;5121149;28;19967;-60
2022/07/17 02:26:48;;;;;;;;;;;;;;;23.97;46.35;98719.97;5123868;28;19924;-61
2022/07/17 02:29:14;;;;;;;;;;;;;;;23.83;46.52;98711.22;5124441;28;19928;-60
2022/07/17 02:31:42;;;;;;;;;;;;;;;23.99;46.56;98717.69;5122487;28;19924;-60
2022/07/17 02:34:08;;;;;;;;;;;;;;;23.80;46.86;98727.47;5120926;28;19928;-60
2022/07/17 02:36:34;;;;;;;;;;;;;;;23.89;46.72;98723.53;5121787;28;19924;-60
2022/07/17 02:39:01;;;;;;;;;;;;;;;23.97;46.52;98717.25;5124344;28;19927;-61
2022/07/17 02:41:28;;;;;;;;;;;;;;;24.05;46.26;98721.84;5124181;28;19947;-60
2022/07/17 02:43:54;;;;;;;;;;;;;;;24.04;46.23;98719.44;5135606;27;20000;-60
2022/07/17 02:46:20;;;;;;;;;;;;;;;24.13;46.24;98725.69;5119806;28;19924;-61
2022/07/17 02:48:48;;;;;;;;;;;;;;;24.10;46.34;98729.84;5123135;28;19924;-61
2022/07/17 02:51:14;;;;;;;;;;;;;;;24.13;46.52;98722.94;5124149;28;19959;-60
2022/07/17 02:53:41;;;;;;;;;;;;;;;23.38;47.70;98721.03;5122163;28;19923;-60
2022/07/17 02:56:07;;;;;;;;;;;;;;;22.88;48.94;98715.41;5120569;28;19962;-61
2022/07/17 02:58:34;;;;;;;;;;;;;;;22.29;49.92;98719.75;5121013;28;20097;-59
2022/07/17 03:01:00;;;;;;;;;;;;;;;22.36;50.30;98723.63;5124046;28;19931;-60
2022/07/17 03:03:27;;;;;;;;;;;;;;;22.50;49.98;98720.72;5123758;28;19923;-60
2022/07/17 03:05:54;;;;;;;;;;;;;;;22.11;50.54;98724.38;5120223;28;19955;-61
2022/07/17 03:08:21;;;;;;;;;;;;;;;21.88;51.02;98725.63;5120120;28;19935;-61
2022/07/17 03:10:47;;;;;;;;;;;;;;;21.80;51.68;98723.66;5122800;28;20020;-60
2022/07/17 03:13:13;;;;;;;;;;;;;;;21.92;51.49;98727.41;5138452;27;19959;-60
2022/07/17 03:15:40;;;;;;;;;;;;;;;22.30;50.61;98724.09;5122001;28;19924;-60
2022/07/17 03:18:06;;;;;;;;;;;;;;;22.65;49.93;98722.16;5119971;28;19967;-61
2022/07/17 03:20:32;;;;;;;;;;;;;;;23.04;49.23;98730.13;5120420;28;20659;-59
2022/07/17 03:23:00;;;;;;;;;;;;;;;23.32;48.37;98725.06;5123079;28;19924;-60
2022/07/17 03:25:26;;;;;;;;;;;;;;;23.50;47.96;98729.34;5123296;28;20291;-61
2022/07/17 03:27:53;;;;;;;;;;;;;;;23.56;47.89;98731.59;5119890;28;19959;-60
2022/07/17 03:30:19;;;;;;;;;;;;;;;23.58;47.65;98729.31;5119834;28;19991;-60
2022/07/17 03:32:45;;;;;;;;;;;;;;;23.38;47.97;98718.31;5122355;28;19924;-60
2022/07/17 03:35:12;;;;;;;;;;;;;;;23.47;47.70;98727.28;5123481;28;19924;-60
2022/07/17 03:37:38;;;;;;;;;;;;;;;23.49;47.61;98728.56;5121699;28;19938;-59
2022/07/17 03:40:07;;;;;;;;;;;;;;;23.47;47.55;98728.09;5119913;28;20015;-60
2022/07/17 03:42:33;;;;;;;;;;;;;;;23.37;47.64;98727.63;5135641;27;19987;-60
2022/07/17 03:44:59;;;;;;;;;;;;;;;23.44;47.47;98733.41;5123539;28;19967;-60
2022/07/17 03:47:26;;;;;;;;;;;;;;;23.45;47.50;98729.56;5123695;28;19924;-59
2022/07/17 03:49:52;;;;;;;;;;;;;;;23.41;47.51;98723.94;5120038;28;19987;-60
2022/07/17 03:52:18;;;;;;;;;;;;;;;23.42;47.63;98731.00;5119115;28;19935;-60
2022/07/17 03:54:45;;;;;;;;;;;;;;;23.44;47.46;98731.47;5121443;28;20012;-61
2022/07/17 03:57:12;;;;;;;;;;;;;;;23.43;47.34;98735.31;5122507;28;19939;-60
2022/07/17 03:59:39;;;;;;;;;;;;;;;23.35;47.38;98735.31;5120912;28;19966;-60
2022/07/17 04:02:05;;;;;;;;;;;;;;;23.36;47.27;98737.75;5118908;28;19964;-60
2022/07/17 04:04:31;;;;;;;;;;;;;;;23.01;48.11;98747.94;5119018;28;19924;-60
2022/07/17 04:06:58;;;;;;;;;;;;;;;22.76;48.63;98735.16;5122258;28;19984;-60
2022/07/17 04:09:24;;;;;;;;;;;;;;;22.51;48.98;98727.78;5122436;28;19934;-60
2022/07/17 04:11:50;;;;;;;;;;;;;;;23.04;48.25;98730.94;5123861;27;19928;-61
2022/07/17 04:14:18;;;;;;;;;;;;;;;23.04;48.33;98728.22;5129211;27;19991;-61
2022/07/17 04:16:44;;;;;;;;;;;;;;;23.13;47.94;98736.34;5121094;28;19935;-60
2022/07/17 04:19:11;;;;;;;;;;;;;;;22.92;48.52;98730.81;5122380;28;19939;-61
2022/07/17 04:21:37;;;;;;;;;;;;;;;22.90;48.36;98734.97;5121140;28;19935;-61
2022/07/17 04:24:04;;;;;;;;;;;;;;;23.06;48.43;98736.84;5119069;28;19959;-60
2022/07/17 04:26:30;;;;;;;;;;;;;;;23.20;48.15;98727.69;5119189;28;19959;-60
2022/07/17 04:28:56;;;;;;;;;;;;;;;23.29;47.83;98733.91;5122450;28;20268;-60
2022/07/17 04:31:24;;;;;;;;;;;;;;;23.25;47.93;98730.22;5122075;28;19935;-60
2022/07/17 04:33:53;;;;;;;;;;;;;;;23.26;47.82;98735.38;5118907;28;19934;-60
2022/07/17 04:36:19;;;;;;;;;;;;;;;23.24;47.70;98740.31;5118537;28;19924;-60
2022/07/17 04:38:46;;;;;;;;;;;;;;;23.15;47.82;98746.94;5120907;28;19935;-60
2022/07/17 04:41:12;;;;;;;;;;;;;;;23.02;47.79;98743.28;5122118;28;20012;-60
2022/07/17 04:43:39;;;;;;;;;;;;;;;22.78;48.58;98743.78;5135340;27;19924;-60
2022/07/17 04:46:05;;;;;;;;;;;;;;;22.74;48.65;98744.78;5118425;28;19948;-60
2022/07/17 04:48:33;;;;;;;;;;;;;;;22.76;48.39;98750.69;5118563;28;19924;-61
2022/07/17 04:50:59;;;;;;;;;;;;;;;22.24;49.39;98744.41;5122029;28;19924;-61
2022/07/17 04:53:26;;;;;;;;;;;;;;;22.22;49.33;98741.22;5121746;28;19935;-61
2022/07/17 04:55:52;;;;;;;;;;;;;;;22.27;49.18;98739.13;5118476;28;19991;-60
2022/07/17 04:58:19;;;;;;;;;;;;;;;22.40;48.98;98737.38;5118282;28;19962;-61
2022/07/17 05:00:46;;;;;;;;;;;;;;;22.02;49.52;98754.31;5120833;28;19930;-59
2022/07/17 05:03:13;;;;;;;;;;;;;;;22.09;49.68;98750.31;5121949;28;20445;-60
2022/07/17 05:05:41;;;;;;;;;;;;;;;22.40;49.05;98748.28;5120315;28;19946;-60
2022/07/17 05:08:07;;;;;;;;;;;;;;;22.36;48.95;98750.81;5118371;28;19924;-60
2022/07/17 05:10:33;;;;;;;;;;;;;;;22.09;49.26;98742.16;5122195;28;19960;-60
2022/07/17 05:13:00;;;;;;;;;;;;;;;22.27;49.15;98736.41;5141154;27;19920;-58
2022/07/17 05:15:26;;;;;;;;;;;;;;;22.50;48.66;98748.75;5125960;28;19928;-60
2022/07/17 05:17:52;;;;;;;;;;;;;;;21.88;49.54;98736.50;5122606;28;19952;-59
2022/07/17 05:20:19;;;;;;;;;;;;;;;21.61;50.11;98745.66;5122703;28;19950;-62
2022/07/17 05:22:46;;;;;;;;;;;;;;;21.18;51.05;98740.03;5124728;28;19936;-60
2022/07/17 05:25:13;;;;;;;;;;;;;;;20.33;53.11;98745.66;5125789;28;19951;-60
2022/07/17 05:27:39;;;;;;;;;;;;;;;20.96;52.03;98742.75;5124244;28;19927;-59
2022/07/17 05:30:06;;;;;;;;;;;;;;;21.17;52.05;98735.72;5122250;28;19928;-60
2022/07/17 05:32:32;;;;;;;;;;;;;;;21.07;51.77;98741.41;5122594;28;19924;-60
2022/07/17 05:34:59;;;;;;;;;;;;;;;21.37;51.23;98743.34;5125748;28;19959;-60
2022/07/17 05:37:25;;;;;;;;;;;;;;;21.63;50.88;98740.75;5125357;28;19937;-61
2022/07/17 05:39:53;;;;;;;;;;;;;;;22.05;50.11;98745.50;5122275;28;19928;-59
2022/07/17 05:42:19;;;;;;;;;;;;;;;22.52;49.50;98748.44;5134273;27;19924;-60
2022/07/17 05:44:46;;;;;;;;;;;;;;;22.82;48.87;98750.19;5126453;27;19924;-60
2022/07/17 05:47:12;;;;;;;;;;;;;;;23.06;48.14;98753.19;5125227;28;19970;-61
2022/07/17 05:49:38;;;;;;;;;;;;;;;23.37;47.42;98744.78;5123648;28;20000;-59
2022/07/17 05:52:05;;;;;;;;;;;;;;;23.44;47.80;98756.00;5121856;28;19931;-60
2022/07/17 05:54:32;;;;;;;;;;;;;;;23.61;47.49;98761.38;5121829;28;19947;-61
2022/07/17 05:57:00;;;;;;;;;;;;;;;23.74;47.34;98751.38;5125013;28;19933;-60
2022/07/17 05:59:27;;;;;;;;;;;;;;;23.65;47.27;98761.53;5124795;28;19966;-60
2022/07/17 06:01:53;;;;;;;;;;;;;;;23.76;47.30;98764.72;5121433;28;19932;-61
2022/07/17 06:04:19;;;;;;;;;;;;;;;24.07;47.05;98757.00;5121206;28;19924;-61
2022/07/17 06:06:46;;;;;;;;;;;;;;;24.08;46.80;98764.84;5123751;28;19955;-61
2022/07/17 06:09:12;;;;;;;;;;;;;;;24.30;46.63;98768.41;5124639;28;19963;-61
2022/07/17 06:11:38;;;;;;;;;;;;;;;24.04;46.91;98774.03;5124045;27;19959;-60
2022/07/17 06:14:06;;;;;;;;;;;;;;;23.78;47.20;98774.16;5135103;27;20003;-61
2022/07/17 06:16:32;;;;;;;;;;;;;;;24.02;47.45;98779.00;5121595;28;19959;-61
2022/07/17 06:18:59;;;;;;;;;;;;;;;24.36;46.42;98767.88;5124670;28;19926;-61
2022/07/17 06:21:25;;;;;;;;;;;;;;;24.20;46.58;98764.16;5123256;28;19963;-60
2022/07/17 06:23:51;;;;;;;;;;;;;;;24.42;46.55;98769.28;5121295;28;19994;-60
2022/07/17 06:26:18;;;;;;;;;;;;;;;24.58;46.57;98772.22;5120947;28;19996;-62
2022/07/17 06:28:45;;;;;;;;;;;;;;;24.55;46.28;98773.69;5123072;28;19928;-61
2022/07/17 06:31:13;;;;;;;;;;;;;;;24.65;46.07;98765.09;5124373;28;19923;-60
2022/07/17 06:33:39;;;;;;;;;;;;;;;24.47;45.96;98776.50;5122676;28;20022;-60
2022/07/17 06:36:06;;;;;;;;;;;;;;;24.36;45.56;98772.53;5120703;28;19931;-61
2022/07/17 06:38:33;;;;;;;;;;;;;;;24.53;46.23;98775.16;5120941;28;19923;-60
2022/07/17 06:40:59;;;;;;;;;;;;;;;24.41;45.33;98778.63;5124080;28;19919;-60
2022/07/17 06:43:25;;;;;;;;;;;;;;;24.51;45.46;98774.72;5139087;27;19924;-61
2022/07/17 06:45:53;;;;;;;;;;;;;;;25.02;45.71;98762.53;5120822;28;19995;-61
2022/07/17 06:48:22;;;;;;;;;;;;;;;25.34;45.17;98775.41;5120472;28;19924;-61
2022/07/17 06:50:48;;;;;;;;;;;;;;;25.41;44.58;98772.88;5123012;28;19984;-61
2022/07/17 06:53:15;;;;;;;;;;;;;;;25.05;45.38;98770.06;5105556;28;19935;-60
2022/07/17 06:55:42;;;;;;;;;;;;;;;25.36;45.02;98775.03;5121904;28;19928;-61
2022/07/17 06:58:08;;;;;;;;;;;;;;;25.09;43.84;98774.53;5119943;28;19952;-60
2022/07/17 07:00:35;;;;;;;;;;;;;;;25.13;44.79;98777.38;5120695;28;19991;-61
2022/07/17 07:03:01;;;;;;;;;;;;;;;25.46;44.86;98772.69;5123550;28;19939;-61
2022/07/17 07:05:29;;;;;;;;;;;;;;;25.96;43.96;98769.66;5123547;28;19924;-60
2022/07/17 07:07:55;;;;;;;;;;;;;;;26.27;43.46;98778.06;5111310;28;19924;-60
2022/07/17 07:10:22;;;;;;;;;;;;;;;26.22;42.43;98769.31;5111387;28;19924;-60
2022/07/17 07:12:48;;;;;;;;;;;;;;;26.27;43.33;98774.56;5129389;27;20118;-60
2022/07/17 07:15:15;;;;;;;;;;;;;;;25.42;43.04;98768.22;5123718;28;19930;-60
2022/07/17 07:17:41;;;;;;;;;;;;;;;25.14;44.49;98773.50;5121649;28;19924;-60
2022/07/17 07:20:08;;;;;;;;;;;;;;;25.82;44.16;98773.88;5120028;28;19931;-60
2022/07/17 07:22:36;;;;;;;;;;;;;;;26.00;43.93;98783.44;5120472;28;19924;-61
2022/07/17 07:25:03;;;;;;;;;;;;;;;25.78;43.12;98777.28;5123381;28;19992;-61
2022/07/17 07:27:29;;;;;;;;;;;;;;;25.68;44.17;98780.50;5123106;28;19986;-60
2022/07/17 07:29:55;;;;;;;;;;;;;;;25.50;43.33;98795.50;5119684;28;19995;-60
2022/07/17 07:32:22;;;;;;;;;;;;;;;25.04;43.74;98790.31;5119087;28;19952;-61
2022/07/17 07:34:48;;;;;;;;;;;;;;;25.58;44.54;98791.88;5122207;28;19928;-61
2022/07/17 07:37:14;;;;;;;;;;;;;;;26.05;42.91;98791.44;5123062;28;19958;-60
2022/07/17 07:39:43;;;;;;;;;;;;;;;25.56;43.17;98799.59;5121083;28;19931;-60
2022/07/17 07:42:09;;;;;;;;;;;;;;;24.96;44.16;98788.47;5128989;27;19923;-60
2022/07/17 07:44:36;;;;;;;;;;;;;;;25.21;44.16;98781.97;5125249;27;19924;-60
2022/07/17 07:47:03;;;;;;;;;;;;;;;25.62;44.42;98790.06;5122995;28;19939;-60
2022/07/17 07:49:29;;;;;;;;;;;;;;;25.31;44.40;98795.22;5122597;28;19924;-61
2022/07/17 07:51:55;;;;;;;;;;;;;;;25.89;44.32;98788.59;5119305;28;19935;-60
2022/07/17 07:54:22;;;;;;;;;;;;;;;25.94;43.29;98784.81;5118902;28;19924;-61
2022/07/17 07:56:50;;;;;;;;;;;;;;;25.18;43.64;98793.56;5121921;28;19928;-60
2022/07/17 07:59:16;;;;;;;;;;;;;;;24.82;44.11;98785.25;5122658;28;19935;-59
2022/07/17 08:01:42;;;;;;;;;;;;;;;25.66;44.39;98790.97;5120540;28;19955;-61
2022/07/17 08:04:09;;;;;;;;;;;;;;;24.86;44.30;98788.88;5118989;28;19924;-61
2022/07/17 08:06:35;;;;;;;;;;;;;;;24.88;45.12;98776.47;5119735;28;19960;-60
2022/07/17 08:09:02;;;;;;;;;;;;;;;24.58;44.80;98778.47;5122368;28;19923;-60
2022/07/17 08:11:28;;;;;;;;;;;;;;;24.64;45.44;98788.06;5122285;28;19968;-60
2022/07/17 08:13:56;;;;;;;;;;;;;;;25.25;44.27;98780.16;5134037;27;19931;-61
2022/07/17 08:16:22;;;;;;;;;;;;;;;25.07;44.97;98787.72;5118873;28;19953;-60
2022/07/17 08:18:48;;;;;;;;;;;;;;;25.96;43.89;98771.59;5121495;28;19978;-60
2022/07/17 08:21:15;;;;;;;;;;;;;;;26.26;43.67;98776.50;5122247;28;19950;-61
2022/07/17 08:23:41;;;;;;;;;;;;;;;25.57;43.71;98776.59;5120284;28;19924;-59
2022/07/17 08:26:07;;;;;;;;;;;;;;;26.07;43.82;98767.25;5118807;28;20005;-60
2022/07/17 08:28:34;;;;;;;;;;;;;;;26.79;43.02;98771.78;5119346;28;19924;-60
2022/07/17 08:31:02;;;;;;;;;;;;;;;26.88;42.41;98769.72;5122330;28;19991;-59
2022/07/17 08:33:29;;;;;;;;;;;;;;;26.30;43.11;98771.91;5122050;28;19924;-60
2022/07/17 08:35:55;;;;;;;;;;;;;;;26.34;43.46;98771.25;5110301;28;19959;-60
2022/07/17 08:38:22;;;;;;;;;;;;;;;26.42;42.48;98773.84;5109969;28;20018;-60
2022/07/17 08:40:49;;;;;;;;;;;;;;;25.64;43.20;98782.31;5110226;28;19982;-60
2022/07/17 08:43:16;;;;;;;;;;;;;;;26.22;43.48;98774.78;5131169;28;19924;-61
2022/07/17 08:45:44;;;;;;;;;;;;;;;27.05;42.53;98777.63;5119595;28;19967;-62
2022/07/17 08:48:13;;;;;;;;;;;;;;;26.77;41.67;98779.53;5118506;28;19924;-60
2022/07/17 08:50:40;;;;;;;;;;;;;;;27.27;41.72;98776.25;5119688;28;19931;-61
2022/07/17 08:53:07;;;;;;;;;;;;;;;27.47;41.78;98780.75;5121954;28;19924;-60
2022/07/17 08:55:33;;;;;;;;;;;;;;;27.03;41.06;98768.16;5121026;28;19920;-61
2022/07/17 08:58:00;;;;;;;;;;;;;;;26.41;42.34;98771.44;5100114;28;19924;-60
2022/07/17 09:00:28;;;;;;;;;;;;;;;26.45;42.74;98778.63;5118096;28;19924;-61
2022/07/17 09:02:55;;;;;;;;;;;;;;;25.91;42.73;98771.81;5122023;28;19984;-61
2022/07/17 09:05:23;;;;;;;;;;;;;;;25.61;43.52;98780.25;5121569;28;19924;-62
2022/07/17 09:07:50;;;;;;;;;;;;;;;25.06;44.38;98774.41;5118545;28;19928;-61
2022/07/17 09:10:16;;;;;;;;;;;;;;;25.79;42.93;98783.56;5118103;28;19980;-60
2022/07/17 09:12:43;;;;;;;;;;;;;;;25.68;42.45;98777.75;5135116;28;19923;-61
2022/07/17 09:15:16;;;;;;;;;;;;;;;25.51;41.06;98785.34;5121673;28;19923;-62
2022/07/17 09:17:48;;;;;;;;;;;;;;;25.51;42.03;98794.34;5119527;28;19930;-61
2022/07/17 09:20:14;;;;;;;;;;;;;;;25.29;41.32;98792.00;5118159;28;19964;-60
2022/07/17 09:22:43;;;;;;;;;;;;;;;25.27;41.85;98788.81;5119539;28;19924;-60
2022/07/17 09:25:09;;;;;;;;;;;;;;;26.37;42.01;98779.56;5121408;28;19923;-60
2022/07/17 09:27:36;;;;;;;;;;;;;;;26.36;40.24;98783.44;5120367;28;19927;-60
2022/07/17 09:30:03;;;;;;;;;;;;;;;26.94;40.88;98781.22;5118005;28;19924;-61
2022/07/17 09:32:30;;;;;;;;;;;;;;;27.43;40.42;98781.81;5117792;28;19924;-60
2022/07/17 09:34:58;;;;;;;;;;;;;;;27.62;40.44;98777.22;5121338;28;19959;-60
2022/07/17 09:37:25;;;;;;;;;;;;;;;27.51;38.91;98778.91;5121161;28;19962;-61
2022/07/17 09:39:53;;;;;;;;;;;;;;;27.76;39.80;98772.06;5118141;28;19924;-61
2022/07/17 09:42:24;;;;;;;;;;;;;;;27.98;39.35;98764.38;5130169;28;19923;-60
2022/07/17 09:45:01;;;;;;;;;;;;;;;27.97;39.36;98766.31;5121798;28;20018;-61
2022/07/17 09:47:28;;;;;;;;;;;;;;;27.84;38.90;98762.88;5121002;28;19924;-60
2022/07/17 09:49:55;;;;;;;;;;;;;;;28.31;38.48;98764.75;5117723;28;19925;-60
2022/07/17 09:52:23;;;;;;;;;;;;;;;28.39;38.49;98763.75;5117562;28;19924;-60
2022/07/17 09:54:49;;;;;;;;;;;;;;;28.41;38.39;98772.41;5120780;28;19931;-60
2022/07/17 09:57:18;;;;;;;;;;;;;;;27.82;38.16;98759.66;5124768;28;19924;-61
2022/07/17 09:59:46;;;;;;;;;;;;;;;27.74;35.16;98765.34;5122589;28;19966;-61
2022/07/17 10:02:13;;;;;;;;;;;;;;;27.23;36.44;98759.72;5121098;28;19931;-61
2022/07/17 10:04:40;;;;;;;;;;;;;;;27.57;35.67;98760.22;5122449;28;19987;-61
2022/07/17 10:07:08;;;;;;;;;;;;;;;27.33;34.47;98758.41;5124740;28;19943;-61
2022/07/17 10:09:35;;;;;;;;;;;;;;;27.49;36.89;98751.00;5123962;28;19946;-61
2022/07/17 10:12:02;;;;;;;;;;;;;;;27.74;36.67;98738.69;5128540;27;20003;-60
2022/07/17 10:14:30;;;;;;;;;;;;;;;27.59;35.83;98745.00;5128584;27;20557;-61
2022/07/17 10:17:06;;;;;;;;;;;;;;;27.06;35.65;98748.28;5112667;28;19924;-61
2022/07/17 10:19:33;;;;;;;;;;;;;;;26.80;37.09;98735.84;5112324;28;19924;-61
2022/07/17 10:22:00;;;;;;;;;;;;;;;26.41;37.10;98746.78;5112576;28;20384;-61
2022/07/17 10:24:27;;;;;;;;;;;;;;;26.36;37.24;98742.38;5112169;28;19945;-61
2022/07/17 10:26:54;;;;;;;;;;;;;;;27.20;37.69;98743.19;5112511;28;19935;-60
2022/07/17 10:29:32;;;;;;;;;;;;;;;27.70;37.12;98743.28;5112441;28;19931;-61
2022/07/17 10:32:00;;;;;;;;;;;;;;;28.01;36.89;98739.72;5124213;28;20003;-62
2022/07/17 10:34:42;;;;;;;;;;;;;;;28.43;36.49;98728.91;5124068;28;19973;-61
2022/07/17 10:37:16;;;;;;;;;;;;;;;28.59;36.20;98726.91;5120825;28;19955;-61
2022/07/17 10:39:53;;;;;;;;;;;;;;;28.78;35.90;98737.13;5120494;28;19923;-61
2022/07/17 10:42:34;;;;;;;;;;;;;;;28.37;33.36;98735.84;5132793;27;19962;-61
2022/07/17 10:45:07;;;;;;;;;;;;;;;27.70;33.38;98739.75;5111463;28;19924;-60
2022/07/17 10:47:42;;;;;;;;;;;;;;;27.79;35.07;98743.91;5111730;28;19924;-61
2022/07/17 10:50:09;;;;;;;;;;;;;;;27.44;33.91;98740.31;5111780;28;19928;-61
2022/07/17 10:52:35;;;;;;;;;;;;;;;27.13;34.78;98741.03;5111653;28;19959;-61
2022/07/17 10:55:04;;;;;;;;;;;;;;;27.38;34.29;98738.94;5111759;28;19924;-61
2022/07/17 10:57:31;;;;;;;;;;;;;;;27.22;33.77;98732.66;5111695;28;19984;-61
2022/07/17 10:59:58;;;;;;;;;;;;;;;27.80;35.15;98726.28;5111647;28;20470;-60
2022/07/17 11:02:29;;;;;;;;;;;;;;;28.30;34.48;98717.25;5111453;28;19920;-62
2022/07/17 11:04:56;;;;;;;;;;;;;;;28.33;33.58;98713.78;5119952;28;19924;-61
2022/07/17 11:07:22;;;;;;;;;;;;;;;28.36;33.63;98713.06;5118760;28;19928;-61
2022/07/17 11:09:49;;;;;;;;;;;;;;;28.73;33.36;98716.22;5122512;28;19924;-63
2022/07/17 11:12:16;;;;;;;;;;;;;;;28.67;33.46;98723.16;5129236;27;19987;-60
2022/07/17 11:14:43;;;;;;;;;;;;;;;28.59;33.24;98718.66;5124728;27;19935;-61
2022/07/17 11:17:09;;;;;;;;;;;;;;;28.48;33.17;98714.88;5123283;28;19928;-61
2022/07/17 11:19:38;;;;;;;;;;;;;;;28.60;33.44;98711.19;5122290;28;19927;-60
2022/07/17 11:22:06;;;;;;;;;;;;;;;28.25;32.34;98719.50;5119498;28;19924;-61
2022/07/17 11:24:36;;;;;;;;;;;;;;;27.82;33.33;98718.50;5119928;28;19954;-61
2022/07/17 11:27:03;;;;;;;;;;;;;;;27.96;32.87;98725.47;5123147;28;19924;-61
2022/07/17 11:29:29;;;;;;;;;;;;;;;27.63;33.03;98717.66;5122946;28;20334;-61
2022/07/17 11:31:56;;;;;;;;;;;;;;;27.41;33.02;98710.81;5111150;28;19955;-61
2022/07/17 11:34:25;;;;;;;;;;;;;;;27.54;32.46;98706.06;5110924;28;19924;-61
2022/07/17 11:36:59;;;;;;;;;;;;;;;27.45;32.48;98698.00;5110577;28;19924;-60
2022/07/17 11:39:25;;;;;;;;;;;;;;;27.24;32.70;98708.41;5110578;28;20038;-61
2022/07/17 11:41:52;;;;;;;;;;;;;;;27.73;33.20;98708.88;5115263;27;19924;-60
2022/07/17 11:44:19;;;;;;;;;;;;;;;28.07;33.35;98712.81;5129343;27;19938;-60
2022/07/17 11:46:47;;;;;;;;;;;;;;;28.38;33.44;98709.94;5121220;28;19966;-60
2022/07/17 11:49:24;;;;;;;;;;;;;;;28.08;31.12;98706.16;5122764;28;19924;-61
2022/07/17 11:51:50;;;;;;;;;;;;;;;28.36;32.83;98701.28;5119972;28;19956;-60
2022/07/17 11:54:18;;;;;;;;;;;;;;;28.45;32.53;98692.81;5119077;28;20411;-60
2022/07/17 11:56:52;;;;;;;;;;;;;;;28.55;31.86;98687.53;5121024;28;19983;-60
2022/07/17 11:59:24;;;;;;;;;;;;;;;28.66;32.29;98685.03;5122430;28;19924;-61
2022/07/17 12:01:51;;;;;;;;;;;;;;;28.77;30.53;98680.53;5119399;28;19998;-61
2022/07/17 12:04:17;;;;;;;;;;;;;;;28.82;31.82;98686.53;5118897;28;19974;-61
2022/07/17 12:06:44;;;;;;;;;;;;;;;28.48;30.63;98681.91;5120688;28;19934;-61
2022/07/17 12:09:10;;;;;;;;;;;;;;;28.19;30.91;98685.22;5122248;28;19991;-61
2022/07/17 12:11:47;;;;;;;;;;;;;;;28.38;31.40;98677.78;5121377;27;19939;-61
2022/07/17 12:14:13;;;;;;;;;;;;;;;28.60;32.58;98686.44;5130538;27;19924;-61
2022/07/17 12:16:39;;;;;;;;;;;;;;;28.29;29.71;98687.38;5119827;28;19960;-61
2022/07/17 12:19:08;;;;;;;;;;;;;;;28.14;29.51;98677.25;5121102;28;19985;-61
2022/07/17 12:21:46;;;;;;;;;;;;;;;28.34;31.56;98676.13;5121359;28;19928;-62
2022/07/17 12:24:18;;;;;;;;;;;;;;;28.62;32.97;98673.16;5118379;28;19935;-60
2022/07/17 12:26:45;;;;;;;;;;;;;;;28.74;30.55;98673.81;5120190;28;20011;-60
2022/07/17 12:29:12;;;;;;;;;;;;;;;28.62;31.75;98665.72;5121961;28;19923;-61
2022/07/17 12:31:39;;;;;;;;;;;;;;;28.86;30.79;98665.41;5120473;28;19930;-60
2022/07/17 12:34:05;;;;;;;;;;;;;;;28.78;31.05;98665.66;5118441;28;19935;-61
2022/07/17 12:36:31;;;;;;;;;;;;;;;28.78;31.96;98666.41;5118392;28;19970;-61
2022/07/17 12:38:58;;;;;;;;;;;;;;;28.90;31.77;98665.47;5121892;28;20289;-61
2022/07/17 12:41:24;;;;;;;;;;;;;;;28.63;29.67;98663.72;5121780;28;19970;-62
2022/07/17 12:43:51;;;;;;;;;;;;;;;28.59;28.72;98669.19;5134238;28;19939;-61
2022/07/17 12:46:19;;;;;;;;;;;;;;;28.66;29.68;98669.31;5118189;28;19924;-61
2022/07/17 12:48:45;;;;;;;;;;;;;;;28.76;30.59;98662.44;5120307;28;19946;-60